sensor_id;sensor_type;location;lat;lon;timestamp;pressure;altitude;pressure_sealevel;temperature;humidity
36932;BME280;22847;42.654;23.370;2022-10-16T00:01:32;95102.38;;;12.03;63.99
36932;BME280;22847;42.654;23.370;2022-10-16T00:03:59;95298.84;;;13.21;63.74
36932;BME280;22847;42.654;23.370;2022-10-16T00:06:26;95282.53;;;13.00;63.68
36932;BME280;22847;42.654;23.370;2022-10-16T00:08:52;95258.59;;;12.85;63.36
36932;BME280;22847;42.654;23.370;2022-10-16T00:11:29;95269.78;;;12.87;64.10
36932;BME280;22847;42.654;23.370;2022-10-16T00:13:58;95267.16;;;12.87;63.88
36932;BME280;22847;42.654;23.370;2022-10-16T00:16:24;95111.94;;;11.85;63.83
36932;BME280;22847;42.654;23.370;2022-10-16T00:18:50;95302.09;;;13.05;63.73
36932;BME280;22847;42.654;23.370;2022-10-16T00:21:18;95130.63;;;11.90;63.94
36932;BME280;22847;42.654;23.370;2022-10-16T00:23:44;95127.38;;;11.79;63.68
36932;BME280;22847;42.654;23.370;2022-10-16T00:26:13;95328.22;;;12.78;63.38
36932;BME280;22847;42.654;23.370;2022-10-16T00:28:39;95335.63;;;12.92;64.05
36932;BME280;22847;42.654;23.370;2022-10-16T00:31:10;95185.78;;;11.87;64.49
36932;BME280;22847;42.654;23.370;2022-10-16T00:33:37;95366.19;;;12.91;63.67
36932;BME280;22847;42.654;23.370;2022-10-16T00:36:04;94945.19;;;10.40;63.26
36932;BME280;22847;42.654;23.370;2022-10-16T00:38:30;95328.66;;;12.54;63.83
36932;BME280;22847;42.654;23.370;2022-10-16T00:40:56;95082.06;;;11.03;63.73
36932;BME280;22847;42.654;23.370;2022-10-16T00:46:03;95311.75;;;12.39;64.54
36932;BME280;22847;42.654;23.370;2022-10-16T00:48:30;95339.78;;;12.66;64.39
36932;BME280;22847;42.654;23.370;2022-10-16T00:50:56;95331.56;;;12.61;64.38
36932;BME280;22847;42.654;23.370;2022-10-16T00:53:23;95083.69;;;11.13;64.12
36932;BME280;22847;42.654;23.370;2022-10-16T00:55:50;95230.75;;;12.00;64.13
36932;BME280;22847;42.654;23.370;2022-10-16T00:58:15;95176.28;;;11.57;64.46
36932;BME280;22847;42.654;23.370;2022-10-16T01:00:41;95140.69;;;11.18;64.72
36932;BME280;22847;42.654;23.370;2022-10-16T01:03:32;95272.97;;;12.15;64.71
36932;BME280;22847;42.654;23.370;2022-10-16T01:06:18;95376.28;;;12.48;65.14
36932;BME280;22847;42.654;23.370;2022-10-16T01:09:04;95347.81;;;12.55;65.00
36932;BME280;22847;42.654;23.370;2022-10-16T01:11:38;95356.19;;;12.58;64.68
36932;BME280;22847;42.654;23.370;2022-10-16T01:14:15;95400.94;;;12.55;65.07
36932;BME280;22847;42.654;23.370;2022-10-16T01:16:50;95391.03;;;12.49;65.19
36932;BME280;22847;42.654;23.370;2022-10-16T01:22:16;95329.91;;;12.50;64.77
36932;BME280;22847;42.654;23.370;2022-10-16T01:24:46;95348.75;;;12.53;64.47
36932;BME280;22847;42.654;23.370;2022-10-16T01:27:34;95345.84;;;12.57;65.10
36932;BME280;22847;42.654;23.370;2022-10-16T01:30:10;95294.44;;;12.19;66.25
36932;BME280;22847;42.654;23.370;2022-10-16T01:33:08;95332.53;;;12.40;66.64
36932;BME280;22847;42.654;23.370;2022-10-16T01:35:43;95104.97;;;10.99;66.44
36932;BME280;22847;42.654;23.370;2022-10-16T01:38:20;95330.63;;;12.14;66.18
36932;BME280;22847;42.654;23.370;2022-10-16T01:40:51;95334.59;;;12.37;65.98
36932;BME280;22847;42.654;23.370;2022-10-16T01:43:21;95326.06;;;12.25;65.73
36932;BME280;22847;42.654;23.370;2022-10-16T01:45:49;95181.56;;;10.79;66.60
36932;BME280;22847;42.654;23.370;2022-10-16T01:48:18;95348.34;;;11.81;66.82
36932;BME280;22847;42.654;23.370;2022-10-16T01:50:56;95298.53;;;11.14;67.65
36932;BME280;22847;42.654;23.370;2022-10-16T01:53:23;95109.72;;;10.16;66.90
36932;BME280;22847;42.654;23.370;2022-10-16T01:55:52;95348.31;;;11.32;66.74
36932;BME280;22847;42.654;23.370;2022-10-16T01:58:21;95394.47;;;11.61;66.79
36932;BME280;22847;42.654;23.370;2022-10-16T02:00:47;95214.69;;;10.88;65.88
36932;BME280;22847;42.654;23.370;2022-10-16T02:03:16;95353.91;;;11.67;65.85
36932;BME280;22847;42.654;23.370;2022-10-16T02:08:09;95018.63;;;9.44;65.65
36932;BME280;22847;42.654;23.370;2022-10-16T02:10:35;95387.59;;;11.60;66.03
36932;BME280;22847;42.654;23.370;2022-10-16T02:13:39;95383.28;;;11.50;66.31
36932;BME280;22847;42.654;23.370;2022-10-16T02:16:03;95388.44;;;11.00;67.78
36932;BME280;22847;42.654;23.370;2022-10-16T02:18:28;95230.31;;;10.27;66.98
36932;BME280;22847;42.654;23.370;2022-10-16T02:20:59;95412.28;;;11.47;66.61
36932;BME280;22847;42.654;23.370;2022-10-16T02:26:03;95350.63;;;10.95;67.42
36932;BME280;22847;42.654;23.370;2022-10-16T02:28:38;95315.75;;;10.65;68.46
36932;BME280;22847;42.654;23.370;2022-10-16T02:31:10;95412.00;;;10.89;68.94
36932;BME280;22847;42.654;23.370;2022-10-16T02:33:38;95163.22;;;9.99;67.61
36932;BME280;22847;42.654;23.370;2022-10-16T02:36:05;95362.47;;;11.29;67.18
36932;BME280;22847;42.654;23.370;2022-10-16T02:38:31;95366.50;;;11.43;66.51
36932;BME280;22847;42.654;23.370;2022-10-16T02:40:57;95383.41;;;11.48;66.31
36932;BME280;22847;42.654;23.370;2022-10-16T02:43:24;95172.34;;;10.14;66.55
36932;BME280;22847;42.654;23.370;2022-10-16T02:45:50;95337.63;;;11.04;66.71
36932;BME280;22847;42.654;23.370;2022-10-16T02:48:16;95381.91;;;11.46;66.33
36932;BME280;22847;42.654;23.370;2022-10-16T02:50:41;95340.22;;;11.35;65.79
36932;BME280;22847;42.654;23.370;2022-10-16T02:53:06;95368.50;;;11.70;64.97
36932;BME280;22847;42.654;23.370;2022-10-16T02:55:32;95383.97;;;11.82;64.72
36932;BME280;22847;42.654;23.370;2022-10-16T02:57:57;95279.84;;;10.79;65.62
36932;BME280;22847;42.654;23.370;2022-10-16T03:00:23;95400.09;;;11.57;65.40
36932;BME280;22847;42.654;23.370;2022-10-16T03:02:48;95393.56;;;11.42;65.16
36932;BME280;22847;42.654;23.370;2022-10-16T03:05:14;95369.88;;;11.24;65.61
36932;BME280;22847;42.654;23.370;2022-10-16T03:07:39;95399.59;;;11.33;65.87
36932;BME280;22847;42.654;23.370;2022-10-16T03:10:06;95407.97;;;10.85;67.88
36932;BME280;22847;42.654;23.370;2022-10-16T03:12:31;95478.81;;;11.01;67.37
36932;BME280;22847;42.654;23.370;2022-10-16T03:14:57;95399.53;;;10.93;67.15
36932;BME280;22847;42.654;23.370;2022-10-16T03:17:23;95404.09;;;11.00;67.33
36932;BME280;22847;42.654;23.370;2022-10-16T03:19:49;95357.59;;;10.64;67.86
36932;BME280;22847;42.654;23.370;2022-10-16T03:22:14;95413.63;;;10.90;68.31
36932;BME280;22847;42.654;23.370;2022-10-16T03:24:40;95364.53;;;10.54;68.67
36932;BME280;22847;42.654;23.370;2022-10-16T03:27:05;95422.06;;;10.94;68.56
36932;BME280;22847;42.654;23.370;2022-10-16T03:29:31;95412.25;;;11.07;67.72
36932;BME280;22847;42.654;23.370;2022-10-16T03:31:57;95377.72;;;11.03;67.13
36932;BME280;22847;42.654;23.370;2022-10-16T03:34:23;95349.28;;;10.70;67.71
36932;BME280;22847;42.654;23.370;2022-10-16T03:36:49;95419.38;;;11.05;68.08
36932;BME280;22847;42.654;23.370;2022-10-16T03:39:15;95306.31;;;10.44;67.61
36932;BME280;22847;42.654;23.370;2022-10-16T03:41:40;95403.66;;;10.95;67.81
36932;BME280;22847;42.654;23.370;2022-10-16T03:44:06;95401.41;;;11.11;67.20
36932;BME280;22847;42.654;23.370;2022-10-16T03:46:31;95405.03;;;11.20;67.02
36932;BME280;22847;42.654;23.370;2022-10-16T03:48:57;95439.66;;;11.22;67.30
36932;BME280;22847;42.654;23.370;2022-10-16T03:51:22;95320.81;;;10.57;67.11
36932;BME280;22847;42.654;23.370;2022-10-16T03:53:47;95358.91;;;11.00;66.62
36932;BME280;22847;42.654;23.370;2022-10-16T03:56:13;95421.84;;;11.37;66.00
36932;BME280;22847;42.654;23.370;2022-10-16T03:58:39;95444.41;;;11.38;65.65
36932;BME280;22847;42.654;23.370;2022-10-16T04:01:04;95348.34;;;11.01;65.40
36932;BME280;22847;42.654;23.370;2022-10-16T04:03:29;95240.50;;;10.31;65.71
36932;BME280;22847;42.654;23.370;2022-10-16T04:05:55;95382.31;;;11.11;65.78
36932;BME280;22847;42.654;23.370;2022-10-16T04:08:21;95403.94;;;11.23;65.69
36932;BME280;22847;42.654;23.370;2022-10-16T04:10:46;95253.78;;;10.27;65.79
36932;BME280;22847;42.654;23.370;2022-10-16T04:13:12;95382.25;;;11.01;65.55
36932;BME280;22847;42.654;23.370;2022-10-16T04:15:38;95438.00;;;11.21;66.14
36932;BME280;22847;42.654;23.370;2022-10-16T04:18:04;95199.25;;;9.94;66.25
36932;BME280;22847;42.654;23.370;2022-10-16T04:20:29;95405.84;;;11.21;66.76
36932;BME280;22847;42.654;23.370;2022-10-16T04:22:56;95403.13;;;11.01;67.10
36932;BME280;22847;42.654;23.370;2022-10-16T04:25:21;95364.28;;;10.98;66.79
36932;BME280;22847;42.654;23.370;2022-10-16T04:27:47;95329.38;;;10.69;66.70
36932;BME280;22847;42.654;23.370;2022-10-16T04:30:13;95420.13;;;11.16;67.06
36932;BME280;22847;42.654;23.370;2022-10-16T04:32:38;95188.66;;;9.86;66.45
36932;BME280;22847;42.654;23.370;2022-10-16T04:35:04;95417.69;;;11.25;66.94
36932;BME280;22847;42.654;23.370;2022-10-16T04:37:30;95265.31;;;10.25;66.56
36932;BME280;22847;42.654;23.370;2022-10-16T04:39:55;95425.09;;;11.19;65.60
36932;BME280;22847;42.654;23.370;2022-10-16T04:42:21;95460.69;;;11.21;65.37
36932;BME280;22847;42.654;23.370;2022-10-16T04:44:46;95220.16;;;9.83;65.15
36932;BME280;22847;42.654;23.370;2022-10-16T04:47:12;95447.25;;;11.04;65.28
36932;BME280;22847;42.654;23.370;2022-10-16T04:49:38;95465.06;;;10.99;64.74
36932;BME280;22847;42.654;23.370;2022-10-16T04:52:04;95402.47;;;10.79;65.70
36932;BME280;22847;42.654;23.370;2022-10-16T04:54:29;95230.63;;;9.72;65.72
36932;BME280;22847;42.654;23.370;2022-10-16T04:56:55;95460.59;;;10.90;65.33
36932;BME280;22847;42.654;23.370;2022-10-16T04:59:21;95472.50;;;11.04;66.03
36932;BME280;22847;42.654;23.370;2022-10-16T05:01:47;95212.63;;;9.48;66.06
36932;BME280;22847;42.654;23.370;2022-10-16T05:04:13;95498.97;;;10.99;66.02
36932;BME280;22847;42.654;23.370;2022-10-16T05:06:40;95440.25;;;10.84;65.93
36932;BME280;22847;42.654;23.370;2022-10-16T05:09:05;95477.22;;;11.10;65.96
36932;BME280;22847;42.654;23.370;2022-10-16T05:11:31;95430.97;;;10.91;65.92
36932;BME280;22847;42.654;23.370;2022-10-16T05:13:57;95462.41;;;11.10;65.62
36932;BME280;22847;42.654;23.370;2022-10-16T05:16:22;95479.13;;;11.08;65.92
36932;BME280;22847;42.654;23.370;2022-10-16T05:18:48;95467.88;;;11.07;65.96
36932;BME280;22847;42.654;23.370;2022-10-16T05:21:13;95274.66;;;9.96;65.95
36932;BME280;22847;42.654;23.370;2022-10-16T05:23:38;95446.75;;;11.10;65.88
36932;BME280;22847;42.654;23.370;2022-10-16T05:26:04;95481.78;;;11.38;65.34
36932;BME280;22847;42.654;23.370;2022-10-16T05:28:31;95479.09;;;12.29;63.52
36932;BME280;22847;42.654;23.370;2022-10-16T05:30:57;95439.53;;;15.00;55.40
36932;BME280;22847;42.654;23.370;2022-10-16T05:33:24;95437.38;;;18.40;47.44
36932;BME280;22847;42.654;23.370;2022-10-16T05:35:50;95440.78;;;20.07;41.28
36932;BME280;22847;42.654;23.370;2022-10-16T05:38:17;95424.88;;;22.32;37.07
36932;BME280;22847;42.654;23.370;2022-10-16T05:40:42;95437.41;;;23.71;33.65
36932;BME280;22847;42.654;23.370;2022-10-16T05:43:08;95427.47;;;24.31;32.45
36932;BME280;22847;42.654;23.370;2022-10-16T05:45:34;95447.63;;;26.08;30.23
36932;BME280;22847;42.654;23.370;2022-10-16T05:47:59;95290.66;;;26.34;28.27
36932;BME280;22847;42.654;23.370;2022-10-16T05:50:25;95415.38;;;26.94;27.57
36932;BME280;22847;42.654;23.370;2022-10-16T05:52:51;95269.38;;;24.62;29.21
36932;BME280;22847;42.654;23.370;2022-10-16T05:55:16;95459.38;;;25.89;28.97
36932;BME280;22847;42.654;23.370;2022-10-16T05:57:41;95489.00;;;25.81;29.17
36932;BME280;22847;42.654;23.370;2022-10-16T06:00:07;95298.41;;;24.76;28.92
36932;BME280;22847;42.654;23.370;2022-10-16T06:02:33;95323.81;;;25.78;27.94
36932;BME280;22847;42.654;23.370;2022-10-16T06:04:58;95361.56;;;25.39;28.37
36932;BME280;22847;42.654;23.370;2022-10-16T06:07:23;95471.00;;;23.85;31.12
36932;BME280;22847;42.654;23.370;2022-10-16T06:09:52;95474.25;;;23.87;32.02
36932;BME280;22847;42.654;23.370;2022-10-16T06:12:18;95469.97;;;23.73;31.74
36932;BME280;22847;42.654;23.370;2022-10-16T06:14:45;95468.88;;;24.33;31.15
36932;BME280;22847;42.654;23.370;2022-10-16T06:17:13;95161.50;;;23.12;30.12
36932;BME280;22847;42.654;23.370;2022-10-16T06:19:39;95484.75;;;25.98;29.02
36932;BME280;22847;42.654;23.370;2022-10-16T06:22:05;95303.75;;;25.44;27.89
36932;BME280;22847;42.654;23.370;2022-10-16T06:24:30;95362.63;;;26.35;27.18
36932;BME280;22847;42.654;23.370;2022-10-16T06:26:56;95508.09;;;27.37;26.93
36932;BME280;22847;42.654;23.370;2022-10-16T06:29:21;95458.31;;;26.88;27.25
36932;BME280;22847;42.654;23.370;2022-10-16T06:31:46;95466.09;;;26.53;27.86
36932;BME280;22847;42.654;23.370;2022-10-16T06:34:12;95441.25;;;26.09;28.12
36932;BME280;22847;42.654;23.370;2022-10-16T06:36:39;95483.28;;;26.27;28.32
36932;BME280;22847;42.654;23.370;2022-10-16T06:39:05;95478.41;;;25.74;29.37
36932;BME280;22847;42.654;23.370;2022-10-16T06:41:32;95516.66;;;24.99;30.67
36932;BME280;22847;42.654;23.370;2022-10-16T06:43:58;95360.44;;;23.17;31.22
36932;BME280;22847;42.654;23.370;2022-10-16T06:46:24;95512.00;;;23.71;31.96
36932;BME280;22847;42.654;23.370;2022-10-16T06:48:50;95497.81;;;23.31;33.40
36932;BME280;22847;42.654;23.370;2022-10-16T06:51:18;95360.00;;;22.20;34.34
36932;BME280;22847;42.654;23.370;2022-10-16T06:53:48;95514.06;;;22.89;33.95
36932;BME280;22847;42.654;23.370;2022-10-16T06:58:43;95479.69;;;22.40;34.95
36932;BME280;22847;42.654;23.370;2022-10-16T07:01:10;95520.97;;;22.77;35.84
36932;BME280;22847;42.654;23.370;2022-10-16T07:03:38;95553.63;;;23.11;36.13
36932;BME280;22847;42.654;23.370;2022-10-16T07:06:04;95336.88;;;21.66;34.90
36932;BME280;22847;42.654;23.370;2022-10-16T07:08:34;95539.41;;;22.44;36.07
36932;BME280;22847;42.654;23.370;2022-10-16T07:11:09;95550.59;;;22.05;36.55
36932;BME280;22847;42.654;23.370;2022-10-16T07:13:35;95527.53;;;21.84;36.64
36932;BME280;22847;42.654;23.370;2022-10-16T07:16:08;95362.50;;;20.55;37.60
36932;BME280;22847;42.654;23.370;2022-10-16T07:18:34;95506.00;;;21.09;38.30
36932;BME280;22847;42.654;23.370;2022-10-16T07:23:30;95425.34;;;19.95;39.54
36932;BME280;22847;42.654;23.370;2022-10-16T07:25:55;95538.16;;;20.34;40.14
36932;BME280;22847;42.654;23.370;2022-10-16T07:28:21;95485.50;;;19.72;40.82
36932;BME280;22847;42.654;23.370;2022-10-16T07:30:47;95523.56;;;19.86;40.87
36932;BME280;22847;42.654;23.370;2022-10-16T07:33:12;95514.00;;;20.29;40.80
36932;BME280;22847;42.654;23.370;2022-10-16T07:35:47;95507.78;;;20.51;40.49
36932;BME280;22847;42.654;23.370;2022-10-16T07:38:13;95545.25;;;20.99;40.58
36932;BME280;22847;42.654;23.370;2022-10-16T07:40:38;95425.00;;;20.49;39.22
36932;BME280;22847;42.654;23.370;2022-10-16T07:43:04;95543.25;;;21.15;39.40
36932;BME280;22847;42.654;23.370;2022-10-16T07:45:30;95376.38;;;20.21;39.13
36932;BME280;22847;42.654;23.370;2022-10-16T07:47:56;95541.28;;;21.24;38.16
36932;BME280;22847;42.654;23.370;2022-10-16T07:50:21;95527.78;;;21.04;38.22
36932;BME280;22847;42.654;23.370;2022-10-16T07:52:46;95421.41;;;20.21;39.27
36932;BME280;22847;42.654;23.370;2022-10-16T07:55:12;95535.28;;;21.01;39.27
36932;BME280;22847;42.654;23.370;2022-10-16T07:57:38;95543.91;;;21.03;40.81
36932;BME280;22847;42.654;23.370;2022-10-16T08:00:04;95541.22;;;21.17;39.82
36932;BME280;22847;42.654;23.370;2022-10-16T08:02:31;95570.19;;;20.54;39.19
36932;BME280;22847;42.654;23.370;2022-10-16T08:04:57;95567.81;;;20.73;39.75
36932;BME280;22847;42.654;23.370;2022-10-16T08:07:22;95547.88;;;20.77;39.53
36932;BME280;22847;42.654;23.370;2022-10-16T08:09:51;95396.53;;;19.71;39.66
36932;BME280;22847;42.654;23.370;2022-10-16T08:12:17;95544.34;;;20.56;39.71
36932;BME280;22847;42.654;23.370;2022-10-16T08:14:43;95548.41;;;19.85;40.70
36932;BME280;22847;42.654;23.370;2022-10-16T08:17:08;95557.56;;;20.12;40.78
36932;BME280;22847;42.654;23.370;2022-10-16T08:19:34;95462.44;;;19.21;41.70
36932;BME280;22847;42.654;23.370;2022-10-16T08:22:00;95404.38;;;18.90;41.75
36932;BME280;22847;42.654;23.370;2022-10-16T08:24:26;95553.06;;;20.27;42.37
36932;BME280;22847;42.654;23.370;2022-10-16T08:26:54;95554.50;;;20.52;39.73
36932;BME280;22847;42.654;23.370;2022-10-16T08:29:20;95554.38;;;20.45;40.17
36932;BME280;22847;42.654;23.370;2022-10-16T08:31:45;95537.09;;;20.79;39.56
36932;BME280;22847;42.654;23.370;2022-10-16T08:34:11;95487.91;;;20.76;39.41
36932;BME280;22847;42.654;23.370;2022-10-16T08:36:36;95347.03;;;19.86;38.29
36932;BME280;22847;42.654;23.370;2022-10-16T08:39:02;95542.56;;;21.28;38.64
36932;BME280;22847;42.654;23.370;2022-10-16T08:47:02;95383.72;;;19.60;38.81
36932;BME280;22847;42.654;23.370;2022-10-16T08:49:33;95355.88;;;19.35;39.22
36932;BME280;22847;42.654;23.370;2022-10-16T08:51:59;95325.41;;;19.39;39.47
36932;BME280;22847;42.654;23.370;2022-10-16T08:56:57;95497.88;;;20.74;37.47
36932;BME280;22847;42.654;23.370;2022-10-16T08:59:26;95549.91;;;21.47;36.32
36932;BME280;22847;42.654;23.370;2022-10-16T09:01:52;95554.69;;;21.58;35.47
36932;BME280;22847;42.654;23.370;2022-10-16T09:10:01;95578.44;;;21.45;34.43
36932;BME280;22847;42.654;23.370;2022-10-16T09:12:38;95488.97;;;21.39;34.49
36932;BME280;22847;42.654;23.370;2022-10-16T09:17:56;95547.72;;;22.00;33.59
36932;BME280;22847;42.654;23.370;2022-10-16T09:23:30;95337.22;;;20.52;33.87
36932;BME280;22847;42.654;23.370;2022-10-16T09:25:58;95549.53;;;21.99;34.15
36932;BME280;22847;42.654;23.370;2022-10-16T09:28:23;95548.72;;;20.99;34.85
36932;BME280;22847;42.654;23.370;2022-10-16T09:30:49;95515.19;;;19.37;37.57
36932;BME280;22847;42.654;23.370;2022-10-16T09:33:30;95347.69;;;19.59;37.02
36932;BME280;22847;42.654;23.370;2022-10-16T09:35:58;95505.94;;;21.02;35.46
36932;BME280;22847;42.654;23.370;2022-10-16T09:38:28;95560.25;;;21.42;34.24
36932;BME280;22847;42.654;23.370;2022-10-16T09:40:56;95319.59;;;20.09;36.57
36932;BME280;22847;42.654;23.370;2022-10-16T09:43:25;95406.63;;;20.83;35.53
36932;BME280;22847;42.654;23.370;2022-10-16T09:46:08;95528.53;;;21.55;34.61
36932;BME280;22847;42.654;23.370;2022-10-16T09:48:39;95563.22;;;21.54;33.99
36932;BME280;22847;42.654;23.370;2022-10-16T09:51:38;95462.41;;;20.39;34.99
36932;BME280;22847;42.654;23.370;2022-10-16T09:56:35;95521.34;;;21.28;34.50
36932;BME280;22847;42.654;23.370;2022-10-16T09:59:10;95521.72;;;21.25;35.03
36932;BME280;22847;42.654;23.370;2022-10-16T10:01:41;95553.47;;;21.40;34.26
36932;BME280;22847;42.654;23.370;2022-10-16T10:04:08;95522.22;;;21.56;35.94
36932;BME280;22847;42.654;23.370;2022-10-16T10:06:44;95361.69;;;20.97;33.92
36932;BME280;22847;42.654;23.370;2022-10-16T10:09:20;95515.19;;;21.98;32.66
36932;BME280;22847;42.654;23.370;2022-10-16T10:14:34;95432.09;;;22.04;33.30
36932;BME280;22847;42.654;23.370;2022-10-16T10:19:41;95442.13;;;21.80;32.17
36932;BME280;22847;42.654;23.370;2022-10-16T10:22:29;95493.56;;;22.01;32.74
36932;BME280;22847;42.654;23.370;2022-10-16T10:24:59;95529.44;;;22.18;33.11
36932;BME280;22847;42.654;23.370;2022-10-16T10:33:27;95495.16;;;22.30;33.40
36932;BME280;22847;42.654;23.370;2022-10-16T10:38:51;95483.72;;;22.29;32.83
36932;BME280;22847;42.654;23.370;2022-10-16T10:47:05;95473.41;;;22.54;32.28
36932;BME280;22847;42.654;23.370;2022-10-16T10:50:08;95482.09;;;22.76;31.01
36932;BME280;22847;42.654;23.370;2022-10-16T10:58:47;95465.91;;;22.23;29.45
36932;BME280;22847;42.654;23.370;2022-10-16T11:01:50;95472.31;;;22.35;30.29
36932;BME280;22847;42.654;23.370;2022-10-16T11:04:24;95335.59;;;21.56;30.38
36932;BME280;22847;42.654;23.370;2022-10-16T11:07:00;95457.88;;;22.10;29.32
36932;BME280;22847;42.654;23.370;2022-10-16T11:09:40;95490.91;;;22.35;29.86
36932;BME280;22847;42.654;23.370;2022-10-16T11:12:14;95435.00;;;21.53;29.49
36932;BME280;22847;42.654;23.370;2022-10-16T11:14:54;95492.19;;;21.56;28.75
36932;BME280;22847;42.654;23.370;2022-10-16T11:17:38;95395.50;;;21.37;28.34
36932;BME280;22847;42.654;23.370;2022-10-16T11:20:19;95417.09;;;20.91;29.82
36932;BME280;22847;42.654;23.370;2022-10-16T11:23:14;95464.97;;;21.26;31.19
36932;BME280;22847;42.654;23.370;2022-10-16T11:25:43;95510.47;;;20.87;30.71
36932;BME280;22847;42.654;23.370;2022-10-16T11:28:13;95456.34;;;20.81;30.63
36932;BME280;22847;42.654;23.370;2022-10-16T11:30:54;95412.66;;;20.99;30.52
36932;BME280;22847;42.654;23.370;2022-10-16T11:33:37;95422.75;;;21.52;30.60
36932;BME280;22847;42.654;23.370;2022-10-16T11:36:38;95452.06;;;21.44;30.79
36932;BME280;22847;42.654;23.370;2022-10-16T11:39:24;95480.78;;;21.34;30.62
36932;BME280;22847;42.654;23.370;2022-10-16T11:44:56;95453.44;;;20.76;31.68
36932;BME280;22847;42.654;23.370;2022-10-16T11:47:30;95434.28;;;21.17;31.53
36932;BME280;22847;42.654;23.370;2022-10-16T11:50:06;95435.44;;;21.29;31.88
36932;BME280;22847;42.654;23.370;2022-10-16T11:52:51;95445.50;;;20.76;32.81
36932;BME280;22847;42.654;23.370;2022-10-16T11:55:21;95452.53;;;20.84;32.88
36932;BME280;22847;42.654;23.370;2022-10-16T11:57:54;95470.72;;;20.22;33.74
36932;BME280;22847;42.654;23.370;2022-10-16T12:00:27;95403.47;;;20.23;33.77
36932;BME280;22847;42.654;23.370;2022-10-16T12:08:39;95409.28;;;20.83;33.05
36932;BME280;22847;42.654;23.370;2022-10-16T12:11:54;95450.13;;;21.31;31.72
36932;BME280;22847;42.654;23.370;2022-10-16T12:17:00;95388.69;;;20.28;33.46
36932;BME280;22847;42.654;23.370;2022-10-16T12:19:28;95444.19;;;20.87;37.31
36932;BME280;22847;42.654;23.370;2022-10-16T12:21:56;95466.75;;;21.19;32.97
36932;BME280;22847;42.654;23.370;2022-10-16T12:24:37;95398.25;;;21.08;33.58
36932;BME280;22847;42.654;23.370;2022-10-16T12:27:05;95414.69;;;19.89;33.52
36932;BME280;22847;42.654;23.370;2022-10-16T12:29:36;95473.72;;;20.19;34.88
36932;BME280;22847;42.654;23.370;2022-10-16T12:32:33;95403.38;;;20.45;32.88
36932;BME280;22847;42.654;23.370;2022-10-16T12:35:00;95435.78;;;20.83;34.84
36932;BME280;22847;42.654;23.370;2022-10-16T12:37:34;95449.34;;;20.95;32.95
36932;BME280;22847;42.654;23.370;2022-10-16T12:40:13;95388.75;;;20.92;32.54
36932;BME280;22847;42.654;23.370;2022-10-16T12:42:40;95473.91;;;20.46;33.39
36932;BME280;22847;42.654;23.370;2022-10-16T12:47:51;95426.31;;;20.24;33.11
36932;BME280;22847;42.654;23.370;2022-10-16T12:50:38;95479.34;;;20.96;32.60
36932;BME280;22847;42.654;23.370;2022-10-16T12:53:25;95252.41;;;20.10;33.73
36932;BME280;22847;42.654;23.370;2022-10-16T12:57:06;95451.81;;;21.60;34.71
36932;BME280;22847;42.654;23.370;2022-10-16T13:02:16;95459.38;;;21.63;34.09
36932;BME280;22847;42.654;23.370;2022-10-16T13:13:48;95470.53;;;21.10;33.12
36932;BME280;22847;42.654;23.370;2022-10-16T13:22:40;95487.97;;;21.40;31.63
36932;BME280;22847;42.654;23.370;2022-10-16T13:24:53;95302.00;;;20.58;31.93
36932;BME280;22847;42.654;23.370;2022-10-16T13:30:19;95407.41;;;20.41;32.50
36932;BME280;22847;42.654;23.370;2022-10-16T13:32:50;95445.97;;;20.80;32.48
36932;BME280;22847;42.654;23.370;2022-10-16T13:35:25;95442.38;;;20.52;33.08
36932;BME280;22847;42.654;23.370;2022-10-16T13:37:51;95403.97;;;19.97;34.42
36932;BME280;22847;42.654;23.370;2022-10-16T13:40:24;95458.09;;;20.24;32.98
36932;BME280;22847;42.654;23.370;2022-10-16T13:42:50;95463.69;;;20.79;34.35
36932;BME280;22847;42.654;23.370;2022-10-16T13:45:25;95252.34;;;19.67;34.54
36932;BME280;22847;42.654;23.370;2022-10-16T13:48:04;95467.59;;;21.05;34.76
36932;BME280;22847;42.654;23.370;2022-10-16T13:50:30;95423.66;;;20.96;33.31
36932;BME280;22847;42.654;23.370;2022-10-16T13:53:06;95462.81;;;21.36;32.43
36932;BME280;22847;42.654;23.370;2022-10-16T13:55:31;95443.28;;;21.16;33.57
36932;BME280;22847;42.654;23.370;2022-10-16T13:58:14;95452.75;;;21.25;32.07
36932;BME280;22847;42.654;23.370;2022-10-16T14:00:41;95229.78;;;20.07;32.45
36932;BME280;22847;42.654;23.370;2022-10-16T14:03:19;95457.47;;;21.57;34.66
36932;BME280;22847;42.654;23.370;2022-10-16T14:05:50;95483.91;;;21.44;32.05
36932;BME280;22847;42.654;23.370;2022-10-16T14:08:17;95478.66;;;20.51;33.44
36932;BME280;22847;42.654;23.370;2022-10-16T14:10:46;95455.28;;;20.76;33.00
36932;BME280;22847;42.654;23.370;2022-10-16T14:13:17;95460.53;;;20.90;32.39
36932;BME280;22847;42.654;23.370;2022-10-16T14:15:47;95496.31;;;21.16;34.39
36932;BME280;22847;42.654;23.370;2022-10-16T14:18:22;95320.09;;;19.97;33.20
36932;BME280;22847;42.654;23.370;2022-10-16T14:20:49;95447.66;;;20.87;32.77
36932;BME280;22847;42.654;23.370;2022-10-16T14:23:30;95406.28;;;20.51;33.84
36932;BME280;22847;42.654;23.370;2022-10-16T14:28:34;95475.56;;;20.47;32.51
36932;BME280;22847;42.654;23.370;2022-10-16T14:31:01;95464.81;;;20.34;35.49
36932;BME280;22847;42.654;23.370;2022-10-16T14:38:41;95525.44;;;19.77;33.60
36932;BME280;22847;42.654;23.370;2022-10-16T14:41:07;95495.50;;;19.62;33.82
36932;BME280;22847;42.654;23.370;2022-10-16T14:43:38;95456.09;;;19.30;33.43
36932;BME280;22847;42.654;23.370;2022-10-16T14:46:12;95485.56;;;19.04;33.84
36932;BME280;22847;42.654;23.370;2022-10-16T14:48:43;95501.25;;;19.43;34.79
36932;BME280;22847;42.654;23.370;2022-10-16T14:51:19;95297.63;;;17.85;35.24